.
WxDataArchive / Data Records for 2008-09-22
2008-09-21 September 2008 2008-09-23

Data Records for Monday, 22 September 2008

Time	Temp	Chill	HIndex	Humid	Dewpt	 Wind 	HiWind	WindDir	Rain 	Barom 
-----	----	-----	------	-----	-----	------	------	-------	-----	----- 
00:00	61.6	61.6	61.6	90	58.6	0	2	90	0.00	30.265 
00:05	61.5	61.5	61.5	90	58.5	0	2	90	0.00	30.267 
00:10	61.3	61.3	61.3	90	58.3	0	2	90	0.00	30.267 
00:15	61.3	61.3	61.3	91	58.6	0	1	90	0.00	30.266 
00:20	61.2	61.2	61.2	91	58.5	0	1	90	0.00	30.264 
00:25	61.0	61.0	61.0	91	58.4	0	1	90	0.00	30.265 
00:30	60.9	60.9	60.9	92	58.6	0	2	90	0.00	30.266 
00:35	60.7	60.7	60.7	92	58.4	0	1	90	0.00	30.265 
00:40	60.5	60.5	60.5	92	58.2	0	1	90	0.00	30.266 
00:45	60.4	60.4	60.4	92	58.1	0	0	---	0.00	30.268 
00:50	60.2	60.2	60.2	92	57.9	0	1	90	0.00	30.268 
00:55	60.2	60.2	60.2	93	58.2	0	2	90	0.00	30.269 
01:00	60.2	60.2	60.2	93	58.2	0	2	90	0.00	30.269 
01:05	60.1	60.1	60.1	93	58.1	0	1	90	0.00	30.269 
01:10	59.9	59.9	59.9	93	57.9	0	1	90	0.00	30.270 
01:15	59.8	59.8	59.8	93	57.8	0	1	90	0.00	30.271 
01:20	59.6	59.6	59.6	93	57.6	0	1	90	0.00	30.272 
01:25	59.5	59.5	59.5	93	57.5	0	0	---	0.00	30.274 
01:30	59.5	59.5	59.5	93	57.5	0	1	90	0.00	30.275 
01:35	59.3	59.3	59.3	93	57.3	0	1	90	0.00	30.274 
01:40	59.3	59.3	59.3	93	57.3	0	1	90	0.00	30.274 
01:45	59.2	59.2	59.2	93	57.2	0	1	90	0.00	30.273 
01:50	59.0	59.0	59.0	93	57.0	0	0	---	0.00	30.274 
01:55	59.0	59.0	59.0	94	57.3	0	2	90	0.00	30.273 
02:00	58.9	58.9	58.9	94	57.2	0	2	90	0.00	30.274 
02:05	58.9	58.9	58.9	93	56.9	0	1	90	0.00	30.275 
02:10	58.7	58.7	58.7	93	56.7	0	1	90	0.00	30.273 
02:15	58.6	58.6	58.6	93	56.6	0	1	90	0.00	30.273 
02:20	58.4	58.4	58.4	93	56.4	0	0	---	0.00	30.274 
02:25	58.3	58.3	58.3	93	56.3	0	1	90	0.00	30.274 
02:30	58.1	58.1	58.1	93	56.1	0	1	90	0.00	30.273 
02:35	58.0	58.0	58.0	93	56.0	0	1	90	0.00	30.272 
02:40	58.0	58.0	58.0	93	56.0	0	0	---	0.00	30.272 
02:45	57.8	57.8	57.8	93	55.8	0	1	90	0.00	30.272 
02:50	57.6	57.6	57.6	93	55.6	0	0	---	0.00	30.272 
02:55	57.5	57.5	57.5	93	55.5	0	0	---	0.00	30.273 
03:00	57.3	57.3	57.3	93	55.3	0	0	---	0.00	30.276 
03:05	57.2	57.2	57.2	93	55.2	0	0	---	0.00	30.276 
03:10	57.0	57.0	57.0	94	55.3	0	0	---	0.00	30.278 
03:15	57.0	57.0	57.0	94	55.3	0	0	---	0.00	30.277 
03:20	57.0	57.0	57.0	94	55.3	0	1	90	0.00	30.277 
03:25	57.0	57.0	57.0	94	55.3	0	1	90	0.00	30.277 
03:30	57.0	57.0	57.0	94	55.3	0	2	90	0.00	30.280 
03:35	57.0	57.0	57.0	94	55.3	0	0	---	0.00	30.280 
03:40	57.0	57.0	57.0	94	55.3	0	0	---	0.00	30.285 
03:45	56.9	56.9	56.9	94	55.2	0	0	---	0.00	30.285 
03:50	56.9	56.9	56.9	94	55.2	0	1	90	0.00	30.285 
03:55	56.7	56.7	56.7	94	55.0	0	0	---	0.00	30.284 
04:00	56.7	56.7	56.7	94	55.0	0	0	---	0.00	30.284 
04:05	56.7	56.7	56.7	94	55.0	0	0	---	0.00	30.287 
04:10	56.6	56.6	56.6	95	55.2	0	1	90	0.00	30.289 
04:15	56.6	56.6	56.6	94	54.9	0	1	90	0.00	30.289 
04:20	56.6	56.6	56.6	95	55.2	0	1	90	0.00	30.289 
04:25	56.5	56.5	56.5	95	55.1	0	1	90	0.00	30.290 
04:30	56.5	56.5	56.5	95	55.1	0	0	---	0.00	30.291 
04:35	56.3	56.3	56.3	95	54.9	0	0	---	0.00	30.291 
04:40	56.3	56.3	56.3	95	54.9	0	1	90	0.00	30.291 
04:45	56.3	56.3	56.3	95	54.9	0	1	90	0.00	30.291 
04:50	56.2	56.2	56.2	95	54.8	0	0	---	0.00	30.291 
04:55	56.2	56.2	56.2	95	54.8	0	1	90	0.00	30.292 
05:00	56.3	56.3	56.3	95	54.9	0	2	90	0.00	30.292 
05:05	56.3	56.3	56.3	95	54.9	0	1	90	0.00	30.296 
05:10	56.3	56.3	56.3	95	54.9	0	2	90	0.00	30.298 
05:15	56.3	56.3	56.3	95	54.9	0	2	90	0.00	30.301 
05:20	56.3	56.3	56.3	95	54.9	0	1	90	0.00	30.302 
05:25	56.3	56.3	56.3	95	54.9	0	2	90	0.00	30.304 
05:30	56.3	56.3	56.3	95	54.9	1	3	112	0.00	30.306 
05:35	56.2	56.2	56.2	95	54.8	1	2	112	0.00	30.307 
05:40	56.2	56.2	56.2	95	54.8	1	2	112	0.00	30.308 
05:45	56.2	56.2	56.2	95	54.8	1	2	112	0.00	30.309 
05:50	56.2	56.2	56.2	95	54.8	1	4	112	0.00	30.310 
05:55	56.0	56.0	56.0	95	54.6	0	1	112	0.00	30.311 
06:00	56.0	56.0	56.0	95	54.6	0	2	112	0.00	30.313 
06:05	55.9	55.9	55.9	95	54.5	0	2	112	0.00	30.318 
06:10	55.9	55.9	55.9	95	54.5	0	1	112	0.00	30.320 
06:15	55.7	55.7	55.7	95	54.3	1	2	112	0.00	30.322 
06:20	55.7	55.7	55.7	95	54.3	1	4	112	0.00	30.324 
06:25	55.6	55.6	55.6	95	54.2	1	3	112	0.00	30.324 
06:30	55.4	55.4	55.4	95	54.0	1	4	112	0.00	30.325 
06:35	55.4	55.4	55.4	95	54.0	0	2	90	0.00	30.327 
06:40	55.3	55.3	55.3	95	53.9	1	3	90	0.00	30.328 
06:45	55.3	55.3	55.3	95	53.9	1	3	112	0.00	30.330 
06:50	55.3	55.3	55.3	95	53.9	1	2	112	0.00	30.330 
06:55	55.3	55.3	55.3	95	53.9	1	3	112	0.00	30.335 
07:00	55.3	55.3	55.3	94	53.6	1	4	112	0.00	30.340 
07:05	55.4	55.4	55.4	94	53.7	0	2	112	0.00	30.341 
07:10	55.4	55.4	55.4	94	53.7	1	3	112	0.00	30.342 
07:15	55.6	55.6	55.6	94	53.9	1	3	112	0.00	30.342 
07:20	55.6	55.6	55.6	94	53.9	1	5	112	0.00	30.343 
07:25	55.7	55.7	55.7	93	53.7	1	3	112	0.00	30.343 
07:30	55.7	55.7	55.7	93	53.7	1	5	112	0.00	30.344 
07:35	55.9	55.9	55.9	93	53.9	1	3	90	0.00	30.345 
07:40	56.0	56.0	56.0	92	53.7	2	5	112	0.00	30.346 
07:45	56.2	56.2	56.2	92	53.9	1	3	112	0.00	30.346 
07:50	56.3	56.3	56.3	91	53.7	1	5	112	0.00	30.346 
07:55	56.5	56.5	56.5	91	53.9	2	4	112	0.00	30.344 
08:00	56.7	56.7	56.7	90	53.8	1	3	90	0.00	30.343 
08:05	56.9	56.9	56.9	90	54.0	1	3	90	0.00	30.347 
08:10	57.2	57.2	57.2	89	54.0	1	4	90	0.00	30.347 
08:15	57.5	57.5	57.5	88	54.0	1	4	90	0.00	30.348 
08:20	57.8	57.8	57.8	88	54.3	1	2	90	0.00	30.345 
08:25	58.1	58.1	58.1	87	54.2	1	3	90	0.00	30.345 
08:30	58.6	58.6	58.6	87	54.7	1	4	68	0.00	30.344 
08:35	58.9	58.9	58.9	86	54.7	2	4	90	0.00	30.345 
08:40	59.2	59.2	59.2	85	54.7	1	4	90	0.00	30.346 
08:45	59.8	59.8	59.8	84	55.0	1	4	90	0.00	30.344 
08:50	60.2	60.2	60.2	84	55.3	2	6	90	0.00	30.346 
08:55	60.7	60.7	60.7	83	55.5	2	4	68	0.00	30.348 
09:00	61.3	61.3	61.3	84	56.4	1	5	90	0.00	30.348 
09:05	62.0	62.0	62.0	82	56.4	2	4	90	0.00	30.348 
09:10	62.6	62.6	62.6	81	56.7	2	5	90	0.00	30.351 
09:15	63.4	63.4	63.4	81	57.5	1	3	90	0.00	30.349 
09:20	64.3	64.3	64.3	78	57.3	1	3	112	0.00	30.348 
09:25	65.2	65.2	65.2	76	57.4	2	5	90	0.00	30.347 
09:30	65.3	65.3	65.3	76	57.5	2	5	90	0.00	30.348 
09:35	65.8	65.8	65.8	76	58.0	1	3	90	0.00	30.350 
09:40	66.4	66.4	66.4	75	58.2	1	4	90	0.00	30.351 
09:45	66.9	66.9	66.9	74	58.3	1	3	112	0.00	30.349 
09:50	67.4	67.4	67.4	73	58.4	1	3	90	0.00	30.351 
09:55	67.8	67.8	67.8	72	58.4	1	4	90	0.00	30.350 
10:00	68.1	68.1	68.1	72	58.7	2	4	90	0.00	30.349 
10:05	68.3	68.3	68.3	70	58.1	1	3	112	0.00	30.350 
10:10	68.4	68.4	68.4	71	58.6	1	5	90	0.00	30.351 
10:15	68.9	68.9	68.9	69	58.3	1	3	90	0.00	30.350 
10:20	69.6	69.6	69.6	70	59.4	1	4	90	0.00	30.352 
10:25	70.1	70.1	70.1	67	58.6	1	4	90	0.00	30.350 
10:30	70.1	70.1	70.1	67	58.6	2	5	90	0.00	30.349 
10:35	70.3	70.3	70.3	68	59.2	1	4	112	0.00	30.348 
10:40	70.9	70.9	70.9	66	59.0	1	3	112	0.00	30.346 
10:45	71.3	71.3	71.3	65	58.9	1	3	112	0.00	30.348 
10:50	71.8	71.8	71.8	65	59.4	1	5	112	0.00	30.348 
10:55	71.8	71.8	71.8	66	59.8	1	4	90	0.00	30.348 
11:00	72.3	72.3	72.3	68	61.1	1	4	90	0.00	30.345 
11:05	72.3	72.3	72.3	66	60.3	2	4	90	0.00	30.346 
11:10	72.5	72.5	72.5	65	60.0	1	5	90	0.00	30.343 
11:15	72.7	72.7	72.7	66	60.7	1	2	90	0.00	30.341 
11:20	73.3	73.3	73.3	66	61.2	1	3	90	0.00	30.340 
11:25	73.7	73.7	73.7	62	59.9	2	5	90	0.00	30.339 
11:30	73.7	73.7	73.7	62	59.9	1	5	90	0.00	30.339 
11:35	73.9	73.9	73.9	61	59.6	2	7	90	0.00	30.339 
11:40	74.0	74.0	74.0	62	60.1	2	5	112	0.00	30.341 
11:45	74.2	74.2	74.2	59	58.9	1	5	112	0.00	30.340 
11:50	74.4	74.4	74.4	61	60.1	1	4	112	0.00	30.337 
11:55	74.6	74.6	74.6	60	59.8	2	5	90	0.00	30.335 
12:00	74.7	74.7	74.7	63	61.2	1	4	90	0.00	30.334 
12:05	75.1	75.1	77.3	63	61.6	2	5	112	0.00	30.337 
12:10	75.3	75.3	77.4	63	61.8	1	4	68	0.00	30.336 
12:15	75.4	75.4	77.7	58	59.6	2	5	112	0.00	30.337 
12:20	75.6	75.6	77.7	61	61.2	1	4	112	0.00	30.334 
12:25	75.8	75.8	77.9	57	59.5	2	5	112	0.00	30.333 
12:30	76.0	76.0	78.0	58	60.1	2	5	90	0.00	30.331 
12:35	75.8	75.8	77.9	58	59.9	2	4	90	0.00	30.332 
12:40	75.8	75.8	77.9	59	60.4	2	4	112	0.00	30.330 
12:45	75.8	75.8	77.9	58	59.9	2	5	90	0.00	30.327 
12:50	75.8	75.8	77.9	57	59.5	2	5	90	0.00	30.323 
12:55	75.8	75.8	77.9	60	60.9	1	3	112	0.00	30.320 
13:00	76.1	76.1	78.1	57	59.7	2	6	90	0.00	30.319 
13:05	76.3	76.3	78.2	59	60.9	2	5	112	0.00	30.318 
13:10	76.3	76.3	78.2	58	60.4	1	6	112	0.00	30.316 
13:15	76.3	76.3	78.3	57	59.9	2	5	90	0.00	30.312 
13:20	76.5	76.5	78.4	57	60.1	3	9	90	0.00	30.309 
13:25	76.5	76.5	78.4	57	60.1	2	6	90	0.00	30.307 
13:30	76.5	76.5	78.4	56	59.6	2	6	90	0.00	30.304 
13:35	76.8	76.8	78.6	57	60.4	1	4	90	0.00	30.302 
13:40	77.0	77.0	78.8	58	61.1	1	4	90	0.00	30.301 
13:45	77.2	77.2	78.9	57	60.8	1	4	112	0.00	30.296 
13:50	77.2	77.2	78.9	55	59.8	2	7	90	0.00	30.298 
13:55	77.2	77.2	78.9	57	60.8	2	5	90	0.00	30.298 
14:00	77.2	77.2	78.9	55	59.8	2	7	90	0.00	30.292 
14:05	77.2	77.2	78.9	58	61.3	1	3	90	0.00	30.292 
14:10	77.0	77.0	78.7	54	59.1	3	7	90	0.00	30.291 
14:15	77.2	77.2	78.9	58	61.3	1	4	112	0.00	30.290 
14:20	77.4	77.4	79.0	56	60.5	2	5	112	0.00	30.290 
14:25	77.6	77.6	79.1	54	59.6	1	5	90	0.00	30.289 
14:30	77.9	77.9	79.3	54	59.9	1	4	90	0.00	30.288 
14:35	77.9	77.9	79.3	53	59.4	0	3	90	0.00	30.288 
14:40	77.9	77.9	79.3	54	59.9	2	5	112	0.00	30.287 
14:45	77.9	77.9	79.5	57	61.4	1	3	90	0.00	30.287 
14:50	77.9	77.9	79.3	52	58.8	1	6	90	0.00	30.286 
14:55	77.9	77.9	79.3	52	58.8	1	5	68	0.00	30.288 
15:00	77.7	77.7	79.1	51	58.1	2	4	90	0.00	30.288 
15:05	77.7	77.7	79.2	53	59.2	1	4	112	0.00	30.287 
15:10	77.7	77.7	79.2	54	59.7	1	4	112	0.00	30.286 
15:15	77.9	77.9	79.3	54	59.9	1	4	112	0.00	30.283 
15:20	77.9	77.9	79.3	52	58.8	2	6	112	0.00	30.285 
15:25	77.7	77.7	79.1	52	58.6	2	3	112	0.00	30.287 
15:30	77.7	77.7	79.2	55	60.2	0	2	112	0.00	30.286 
15:35	77.7	77.7	79.1	52	58.6	1	5	112	0.00	30.286 
15:40	77.7	77.7	79.1	52	58.6	0	2	112	0.00	30.283 
15:45	77.7	77.7	79.2	53	59.2	0	2	112	0.00	30.282 
15:50	77.7	77.7	79.1	51	58.1	2	5	112	0.00	30.282 
15:55	77.6	77.6	79.0	51	58.0	1	4	90	0.00	30.279 
16:00	77.6	77.6	79.0	52	58.6	1	4	68	0.00	30.278 
16:05	77.4	77.4	78.9	51	57.8	1	4	68	0.00	30.277 
16:10	77.2	77.2	78.7	51	57.6	1	3	90	0.00	30.278 
16:15	77.2	77.2	78.8	54	59.2	1	4	90	0.00	30.277 
16:20	77.0	77.0	78.7	52	58.0	0	2	112	0.00	30.277 
16:25	77.0	77.0	78.7	52	58.0	1	6	112	0.00	30.277 
16:30	77.0	77.0	78.7	52	58.0	1	4	112	0.00	30.277 
16:35	77.0	77.0	78.7	53	58.5	0	2	112	0.00	30.276 
16:40	76.8	76.8	78.6	54	58.9	1	3	112	0.00	30.276 
16:45	76.8	76.8	78.5	51	57.3	1	3	112	0.00	30.276 
16:50	77.0	77.0	78.7	54	59.1	0	2	112	0.00	30.276 
16:55	76.8	76.8	78.5	53	58.4	1	4	68	0.00	30.278 
17:00	76.8	76.8	78.6	55	59.4	0	1	68	0.00	30.280 
17:05	76.7	76.7	78.5	55	59.3	0	2	68	0.00	30.281 
17:10	76.5	76.5	78.4	55	59.1	0	3	68	0.00	30.281 
17:15	76.3	76.3	78.3	54	58.4	1	3	68	0.00	30.282 
17:20	76.0	76.0	78.1	55	58.6	0	1	68	0.00	30.285 
17:25	75.8	75.8	77.9	56	59.0	0	2	68	0.00	30.285 
17:30	75.6	75.6	77.8	57	59.3	0	1	68	0.00	30.283 
17:35	75.4	75.4	77.7	57	59.1	0	1	68	0.00	30.285 
17:40	75.3	75.3	77.6	58	59.5	0	1	68	0.00	30.285 
17:45	75.3	75.3	77.7	56	58.5	0	1	68	0.00	30.285 
17:50	75.1	75.1	77.5	58	59.3	0	2	68	0.00	30.289 
17:55	74.9	74.9	74.9	56	58.1	0	3	68	0.00	30.291 
18:00	74.7	74.7	74.7	57	58.4	0	3	68	0.00	30.290 
18:05	74.6	74.6	74.6	57	58.3	0	2	68	0.00	30.289 
18:10	74.2	74.2	74.2	58	58.5	0	1	68	0.00	30.291 
18:15	73.9	73.9	73.9	58	58.2	0	1	68	0.00	30.290 
18:20	73.5	73.5	73.5	58	57.8	0	1	68	0.00	30.288 
18:25	73.2	73.2	73.2	58	57.5	0	2	68	0.00	30.287 
18:30	73.0	73.0	73.0	59	57.8	0	1	68	0.00	30.285 
18:35	72.5	72.5	72.5	59	57.3	0	0	---	0.00	30.285 
18:40	72.0	72.0	72.0	60	57.3	0	0	---	0.00	30.288 
18:45	71.5	71.5	71.5	62	57.8	0	0	---	0.00	30.288 
18:50	70.9	70.9	70.9	63	57.7	0	0	---	0.00	30.289 
18:55	70.4	70.4	70.4	64	57.6	0	0	---	0.00	30.289 
19:00	69.9	69.9	69.9	65	57.6	0	0	---	0.00	30.287 
19:05	69.3	69.3	69.3	67	57.9	0	0	---	0.00	30.287 
19:10	68.8	68.8	68.8	68	57.8	0	0	---	0.00	30.288 
19:15	68.3	68.3	68.3	69	57.7	0	0	---	0.00	30.293 
19:20	67.8	67.8	67.8	70	57.6	1	6	68	0.00	30.296 
19:25	68.4	68.4	68.4	65	56.2	2	5	90	0.00	30.297 
19:30	69.1	69.1	69.1	65	56.8	3	5	90	0.00	30.296 
19:35	69.3	69.3	69.3	65	57.0	3	9	90	0.00	30.297 
19:40	69.1	69.1	69.1	65	56.8	3	5	90	0.00	30.298 
19:45	68.9	68.9	68.9	65	56.6	3	7	90	0.00	30.303 
19:50	68.6	68.6	68.6	65	56.4	2	5	112	0.00	30.307 
19:55	68.3	68.3	68.3	65	56.1	2	5	68	0.00	30.311 
20:00	68.1	68.1	68.1	65	55.9	2	4	90	0.00	30.313 
20:05	67.8	67.8	67.8	64	55.2	2	6	90	0.00	30.310 
20:10	67.4	67.4	67.4	64	54.8	2	6	90	0.00	30.312 
20:15	67.3	67.3	67.3	64	54.7	2	4	68	0.00	30.313 
20:20	66.9	66.9	66.9	64	54.3	2	4	112	0.00	30.315 
20:25	66.6	66.6	66.6	64	54.0	2	4	112	0.00	30.321 
20:30	66.3	66.3	66.3	64	53.7	1	5	112	0.00	30.325 
20:35	66.1	66.1	66.1	65	54.0	1	4	90	0.00	30.324 
20:40	65.8	65.8	65.8	65	53.7	1	4	90	0.00	30.325 
20:45	65.5	65.5	65.5	65	53.4	1	4	90	0.00	30.327 
20:50	65.2	65.2	65.2	66	53.5	1	4	90	0.00	30.326 
20:55	65.0	65.0	65.0	66	53.4	2	5	90	0.00	30.327 
21:00	64.7	64.7	64.7	67	53.5	1	4	112	0.00	30.328 
21:05	64.5	64.5	64.5	67	53.3	1	4	90	0.00	30.324 
21:10	64.2	64.2	64.2	68	53.4	1	3	68	0.00	30.325 
21:15	63.9	63.9	63.9	69	53.5	1	4	90	0.00	30.327 
21:20	63.5	63.5	63.5	69	53.1	1	4	90	0.00	30.327 
21:25	63.2	63.2	63.2	70	53.2	1	4	90	0.00	30.330 
21:30	63.1	63.1	63.1	71	53.5	1	3	90	0.00	30.329 
21:35	62.7	62.7	62.7	72	53.5	1	2	90	0.00	30.329 
21:40	62.6	62.6	62.6	72	53.4	0	2	90	0.00	30.330 
21:45	62.3	62.3	62.3	73	53.5	0	2	90	0.00	30.335 
21:50	62.1	62.1	62.1	73	53.3	1	2	90	0.00	30.333 
21:55	61.8	61.8	61.8	74	53.4	1	2	90	0.00	30.333 
22:00	61.6	61.6	61.6	74	53.2	0	2	90	0.00	30.336 
22:05	61.3	61.3	61.3	75	53.3	1	4	90	0.00	30.334 
22:10	61.2	61.2	61.2	76	53.6	1	3	90	0.00	30.336 
22:15	61.0	61.0	61.0	76	53.4	0	1	90	0.00	30.336 
22:20	60.7	60.7	60.7	77	53.4	0	2	90	0.00	30.338 
22:25	60.5	60.5	60.5	78	53.6	0	2	90	0.00	30.337 
22:30	60.4	60.4	60.4	79	53.9	1	3	90	0.00	30.338 
22:35	60.2	60.2	60.2	80	54.0	1	2	90	0.00	30.338 
22:40	60.1	60.1	60.1	80	53.9	1	4	90	0.00	30.339 
22:45	59.9	59.9	59.9	81	54.1	1	4	90	0.00	30.339 
22:50	59.8	59.8	59.8	81	54.0	1	3	90	0.00	30.339 
22:55	59.6	59.6	59.6	82	54.1	0	2	90	0.00	30.339 
23:00	59.5	59.5	59.5	82	54.0	0	2	90	0.00	30.338 
23:05	59.3	59.3	59.3	83	54.1	0	2	90	0.00	30.337 
23:10	59.0	59.0	59.0	83	53.8	0	2	90	0.00	30.336 
23:15	58.9	58.9	58.9	84	54.1	1	2	90	0.00	30.335 
23:20	58.7	58.7	58.7	84	53.9	1	2	90	0.00	30.335 
23:25	58.6	58.6	58.6	84	53.8	0	2	90	0.00	30.336 
23:30	58.6	58.6	58.6	85	54.1	0	1	90	0.00	30.337 
23:35	58.4	58.4	58.4	85	53.9	0	1	90	0.00	30.339 
23:40	58.3	58.3	58.3	85	53.8	0	0	---	0.00	30.339 
23:45	58.1	58.1	58.1	86	53.9	0	1	90	0.00	30.339 
23:50	58.0	58.0	58.0	86	53.8	0	1	90	0.00	30.338 
23:55	57.6	57.6	57.6	87	53.8	0	1	90	0.00	30.338 

CoCoRaHS
IN-AL-39
A2 Web Hosting
Creative Commons License
GoDaddy
Look for:

loaded 2017-12-13 02:51:58 • last modified 2010-11-18 10:43:29
Privacy PolicyDisclaimer
• wx.awcolley.com is powered by PmWiki v.2002016 •
• all content (unless otherwise noted) © 2017 A W Colley